Time;durP1;ratioP1;P1;durP2;ratioP2;P2;SDS_P1;SDS_P2;PMS_P1;PMS_P2;Temp;Humidity;BMP_temperature;BMP_pressure;BME280_temperature;BME280_humidity;BME280_pressure;Samples;Min_cycle;Max_cycle;Signal;HPM_P1;HPM_P2
2022/03/23 00:01:45;;;;;;;43.10;25.70;;;;;;;0.04;66.63;102810.03;4973873;28;20515;-65
2022/03/23 00:04:10;;;;;;;48.53;27.83;;;;;;;0.04;66.85;102807.41;4973744;28;20037;-66
2022/03/23 00:06:36;;;;;;;43.67;27.37;;;;;;;-0.05;66.69;102792.78;4973704;28;20039;-65
2022/03/23 00:09:02;;;;;;;43.70;26.40;;;;;;;-0.01;66.56;102804.91;4956337;28;20061;-67
2022/03/23 00:11:28;;;;;;;46.33;25.77;;;;;;;0.00;67.53;102803.16;4974574;28;20038;-69
2022/03/23 00:13:54;;;;;;;44.10;27.60;;;;;;;-0.12;67.43;102782.56;4973533;28;20261;-66
2022/03/23 00:16:20;;;;;;;41.07;26.70;;;;;;;-0.06;67.44;102779.75;4973596;28;20042;-66
2022/03/23 00:18:45;;;;;;;43.83;26.37;;;;;;;-0.06;67.20;102790.22;4973332;28;20281;-65
2022/03/23 00:21:11;;;;;;;42.40;26.27;;;;;;;-0.02;67.38;102784.84;4973398;28;20200;-66
2022/03/23 00:23:36;;;;;;;48.30;26.63;;;;;;;-0.03;67.46;102777.03;4972709;28;20043;-66
2022/03/23 00:26:02;;;;;;;41.90;25.10;;;;;;;-0.04;66.80;102775.31;4973523;28;20108;-66
2022/03/23 00:28:28;;;;;;;46.93;27.57;;;;;;;-0.46;67.28;102704.97;4956110;28;20050;-67
2022/03/23 00:30:54;;;;;;;49.53;29.03;;;;;;;-0.12;67.60;102756.34;4973352;28;20105;-66
2022/03/23 00:33:21;;;;;;;45.40;27.10;;;;;;;-0.22;68.23;102744.44;4956898;28;20409;-65
2022/03/23 00:35:48;;;;;;;43.93;28.80;;;;;;;-0.13;67.70;102759.88;4974420;28;20151;-65
2022/03/23 00:38:15;;;;;;;51.93;29.80;;;;;;;-0.16;68.52;102749.50;4974003;28;20258;-68
2022/03/23 00:40:43;;;;;;;42.73;26.20;;;;;;;-0.16;68.32;102755.59;4973806;28;20282;-66
2022/03/23 00:43:09;;;;;;;44.43;27.17;;;;;;;-0.18;67.68;102751.31;4973896;28;20262;-63
2022/03/23 00:45:34;;;;;;;71.97;30.90;;;;;;;-0.19;67.44;102744.34;4973235;28;20264;-63
2022/03/23 00:48:00;;;;;;;42.63;25.87;;;;;;;-0.14;67.95;102752.94;4973194;28;20054;-63
2022/03/23 00:50:26;;;;;;;47.37;28.33;;;;;;;-0.23;67.64;102746.22;4973137;28;20070;-64
2022/03/23 00:52:51;;;;;;;45.07;27.70;;;;;;;-0.34;68.09;102720.31;4973095;28;20486;-64
2022/03/23 00:55:18;;;;;;;44.03;28.33;;;;;;;-0.25;68.37;102734.06;4972976;28;20289;-63
2022/03/23 00:57:44;;;;;;;43.10;27.33;;;;;;;-0.26;68.47;102727.97;4973436;28;20129;-63
2022/03/23 01:00:17;;;;;;;38.73;25.80;;;;;;;-0.25;68.28;102728.84;4973117;28;20792;-65
2022/03/23 01:02:45;;;;;;;48.23;30.27;;;;;;;-0.61;68.10;102660.91;4972780;28;20701;-63
2022/03/23 01:05:12;;;;;;;42.53;27.53;;;;;;;-0.29;68.65;102714.09;4973323;28;20302;-63
2022/03/23 01:07:39;;;;;;;48.70;29.00;;;;;;;-0.33;68.12;102711.56;4973383;28;20432;-62
2022/03/23 01:10:06;;;;;;;45.03;28.90;;;;;;;-0.31;68.25;102711.50;4973334;28;20293;-63
2022/03/23 01:12:32;;;;;;;45.80;28.67;;;;;;;-0.32;68.65;102700.19;4956592;28;20274;-62
2022/03/23 01:14:58;;;;;;;46.20;29.20;;;;;;;-0.28;68.43;102707.97;4973081;28;20643;-62
2022/03/23 01:17:25;;;;;;;50.53;30.67;;;;;;;-0.28;68.41;102707.97;4972982;28;20039;-63
2022/03/23 01:19:50;;;;;;;52.20;29.60;;;;;;;-0.36;68.29;102685.47;4973095;28;20270;-63
2022/03/23 01:22:16;;;;;;;50.20;28.47;;;;;;;-0.35;68.47;102684.56;4972913;28;20263;-64
2022/03/23 01:24:44;;;;;;;50.07;27.83;;;;;;;-0.37;68.91;102682.91;4972867;28;20426;-63
2022/03/23 01:27:10;;;;;;;48.30;28.53;;;;;;;-0.40;69.57;102677.75;4973460;28;20325;-64
2022/03/23 01:29:36;;;;;;;48.23;31.83;;;;;;;-0.38;69.33;102675.97;4972843;28;20293;-64
2022/03/23 01:32:02;;;;;;;49.57;30.73;;;;;;;-0.43;69.69;102673.47;4972812;28;20057;-63
2022/03/23 01:34:27;;;;;;;46.73;31.37;;;;;;;-0.44;69.45;102671.75;4972989;28;20039;-63
2022/03/23 01:36:53;;;;;;;51.77;30.70;;;;;;;-0.41;69.88;102670.81;4976396;28;20486;-62
2022/03/23 01:39:19;;;;;;;56.60;28.20;;;;;;;-0.44;69.88;102671.75;4976176;28;20046;-63
2022/03/23 01:41:45;;;;;;;51.77;27.50;;;;;;;-0.45;69.11;102670.06;4976830;28;20134;-64
2022/03/23 01:44:20;;;;;;;48.73;30.47;;;;;;;-0.45;69.94;102663.97;4976473;28;20488;-63
2022/03/23 01:47:24;;;;;;;53.63;31.50;;;;;;;-0.44;70.07;102661.28;4976231;28;20278;-64
2022/03/23 01:49:53;;;;;;;51.03;29.23;;;;;;;-0.49;69.82;102650.13;4878741;29;20298;-63
2022/03/23 01:52:21;;;;;;;55.22;31.10;;;;;;;-0.46;69.86;102657.88;4878832;29;20322;-64
2022/03/23 01:54:48;;;;;;;51.22;28.30;;;;;;;-0.49;69.82;102639.66;4927934;28;20126;-63
2022/03/23 01:57:16;;;;;;;53.83;30.03;;;;;;;-0.48;70.02;102643.97;4976906;28;20043;-65
2022/03/23 01:59:42;;;;;;;49.85;31.40;;;;;;;-0.48;70.05;102636.13;4982004;28;20270;-63
2022/03/23 02:02:11;;;;;;;56.23;30.43;;;;;;;-0.46;69.81;102646.53;4975909;28;20050;-62
2022/03/23 02:04:37;;;;;;;58.13;29.13;;;;;;;-0.49;70.25;102642.25;4976066;28;20039;-65
2022/03/23 02:07:04;;;;;;;48.23;28.00;;;;;;;-0.49;69.86;102641.41;4975677;28;20494;-63
2022/03/23 02:09:31;;;;;;;48.60;28.43;;;;;;;-0.50;69.98;102635.31;4975731;28;20297;-62
2022/03/23 02:11:57;;;;;;;51.87;30.93;;;;;;;-0.55;70.09;102629.38;4976804;28;20270;-63
2022/03/23 02:14:23;;;;;;;51.60;29.50;;;;;;;-0.51;69.82;102623.13;4976138;28;20270;-64
2022/03/23 02:16:51;;;;;;;54.43;30.17;;;;;;;-0.49;70.54;102615.22;4975695;28;20681;-64
2022/03/23 02:19:18;;;;;;;48.90;29.53;;;;;;;-0.51;70.39;102623.13;4975747;28;20041;-64
2022/03/23 02:21:53;;;;;;;49.93;29.93;;;;;;;-0.51;69.93;102620.50;4975703;28;20745;-63
2022/03/23 02:24:23;;;;;;;52.60;30.33;;;;;;;-0.51;70.59;102614.41;4975467;28;20741;-63
2022/03/23 02:26:50;;;;;;;52.57;29.37;;;;;;;-0.56;69.79;102608.47;4975348;28;20298;-63
2022/03/23 02:29:16;;;;;;;52.90;29.67;;;;;;;-0.60;70.29;102599.81;4975200;28;20810;-64
2022/03/23 02:31:42;;;;;;;52.87;30.53;;;;;;;-0.60;70.41;102604.22;4975244;28;20254;-62
2022/03/23 02:34:07;;;;;;;55.43;32.50;;;;;;;-0.63;70.09;102597.31;4975497;28;20281;-62
2022/03/23 02:36:33;;;;;;;45.17;29.30;;;;;;;-0.65;70.21;102593.88;4958472;28;20474;-63
2022/03/23 02:38:59;;;;;;;51.07;32.27;;;;;;;-0.71;70.19;102575.75;4975196;28;20113;-63
2022/03/23 02:41:25;;;;;;;52.27;28.33;;;;;;;-0.61;70.81;102598.13;4975147;28;20357;-64
2022/03/23 02:43:50;;;;;;;62.17;31.60;;;;;;;-0.69;70.61;102587.03;4975261;28;20450;-63
2022/03/23 02:46:18;;;;;;;66.17;31.43;;;;;;;-0.66;70.83;102585.19;4941352;28;20031;-62
2022/03/23 02:48:45;;;;;;;52.05;29.75;;;;;;;-0.61;70.44;102600.72;4982452;28;20069;-63
2022/03/23 02:51:10;;;;;;;56.07;30.10;;;;;;;-0.61;70.47;102595.50;4983091;28;20169;-63
2022/03/23 03:02:19;;;;;;;55.57;33.23;;;;;;;-0.60;70.66;102581.50;4974675;28;20322;-63
2022/03/23 03:04:46;;;;;;;60.77;30.57;;;;;;;-0.62;70.99;102583.31;4974601;28;20278;-63
2022/03/23 03:07:12;;;;;;;57.70;29.27;;;;;;;-0.67;70.74;102564.28;4975001;28;20290;-63
2022/03/23 03:09:38;;;;;;;57.00;30.13;;;;;;;-0.62;70.86;102573.72;4974462;28;20294;-65
2022/03/23 03:12:04;;;;;;;53.07;27.70;;;;;;;-0.64;71.08;102566.81;4974609;28;20035;-65
2022/03/23 03:14:31;;;;;;;63.50;30.67;;;;;;;-0.55;70.91;102574.41;4975181;28;20093;-63
2022/03/23 03:16:57;;;;;;;60.67;32.37;;;;;;;-0.57;71.19;102562.28;4974467;28;20065;-63
2022/03/23 03:19:22;;;;;;;53.33;30.17;;;;;;;-0.50;70.58;102566.41;4974334;28;20278;-63
2022/03/23 03:21:48;;;;;;;58.20;31.33;;;;;;;-0.50;71.01;102562.03;4974534;28;20042;-63
2022/03/23 03:24:13;;;;;;;57.77;29.97;;;;;;;-0.52;70.37;102558.59;4974547;28;20070;-64
2022/03/23 03:27:06;;;;;;;52.83;30.00;;;;;;;-0.48;70.59;102559.34;4974574;28;20062;-64
2022/03/23 03:29:32;;;;;;;53.20;29.63;;;;;;;-0.53;70.59;102551.66;4974471;28;20298;-64
2022/03/23 03:31:57;;;;;;;60.37;32.27;;;;;;;-0.54;71.10;102546.47;4974048;28;20042;-63
2022/03/23 03:34:23;;;;;;;52.87;31.40;;;;;;;-0.52;70.84;102550.75;4974148;28;20043;-63
2022/03/23 03:36:48;;;;;;;62.63;30.33;;;;;;;-0.54;70.87;102549.94;4974282;28;20115;-63
2022/03/23 03:39:13;;;;;;;47.80;28.97;;;;;;;-0.57;70.66;102550.03;4973872;28;20081;-65
2022/03/23 03:41:40;;;;;;;53.77;29.80;;;;;;;-0.55;70.83;102544.75;4974011;28;20035;-64
2022/03/23 03:44:06;;;;;;;58.13;28.43;;;;;;;-0.58;70.83;102535.22;4974459;28;20560;-63
2022/03/23 03:46:32;;;;;;;55.80;30.47;;;;;;;-0.56;70.54;102535.19;4973766;28;20266;-63
2022/03/23 03:48:57;;;;;;;54.03;28.90;;;;;;;-0.56;70.44;102535.19;4973748;28;20034;-66
2022/03/23 03:51:23;;;;;;;53.00;28.47;;;;;;;-0.57;70.47;102528.25;4974069;28;20042;-63
2022/03/23 03:53:49;;;;;;;52.47;29.83;;;;;;;-0.52;70.40;102537.66;4974151;28;20046;-65
2022/03/23 03:56:14;;;;;;;54.27;30.17;;;;;;;-0.50;70.84;102532.38;4976318;28;20042;-63
2022/03/23 03:58:40;;;;;;;52.37;27.80;;;;;;;-0.51;70.91;102531.53;4975651;28;20821;-64
2022/03/23 04:01:06;;;;;;;47.23;29.80;;;;;;;-0.63;70.96;102508.34;4975500;28;20041;-65
2022/03/23 04:03:31;;;;;;;60.87;29.50;;;;;;;-0.54;70.74;102530.78;4974267;28;20482;-64
2022/03/23 04:05:57;;;;;;;50.33;30.77;;;;;;;-0.49;70.70;102528.84;4974251;28;20285;-63
2022/03/23 04:08:23;;;;;;;56.87;29.77;;;;;;;-0.53;71.02;102519.41;4973702;28;20482;-66
2022/03/23 04:10:48;;;;;;;64.57;29.47;;;;;;;-0.44;70.78;102525.19;4974015;28;20517;-64
2022/03/23 04:13:14;;;;;;;63.10;28.93;;;;;;;-0.45;70.27;102514.75;4956303;28;20034;-66
2022/03/23 04:15:39;;;;;;;60.70;30.37;;;;;;;-0.43;70.29;102511.19;4974402;28;20034;-66
2022/03/23 04:18:05;;;;;;;51.50;28.40;;;;;;;-0.37;70.72;102513.59;4973452;28;20035;-64
2022/03/23 04:20:31;;;;;;;55.43;30.23;;;;;;;-0.34;70.31;102515.25;4973619;28;20486;-66
2022/03/23 04:22:57;;;;;;;54.90;29.07;;;;;;;-0.31;70.21;102518.63;4973616;28;20305;-65
2022/03/23 04:25:27;;;;;;;50.80;27.70;;;;;;;-0.27;70.05;102510.72;4973439;28;20488;-64
2022/03/23 04:27:56;;;;;;;69.83;28.87;;;;;;;-0.26;69.87;102508.03;4973127;28;20274;-64
2022/03/23 04:30:28;;;;;;;55.60;27.60;;;;;;;-0.22;70.05;102503.56;4973306;28;20773;-66
2022/03/23 04:32:53;;;;;;;58.47;28.73;;;;;;;-0.22;70.13;102493.06;4973192;28;20115;-64
2022/03/23 04:35:23;;;;;;;56.00;28.70;;;;;;;-0.19;70.09;102492.97;4973538;28;20317;-64
2022/03/23 04:37:49;;;;;;;52.90;28.50;;;;;;;-0.10;70.31;102493.50;4973263;28;20062;-64
2022/03/23 04:40:15;;;;;;;53.17;32.20;;;;;;;-0.03;69.63;102492.38;4973408;28;20270;-67
2022/03/23 04:42:41;;;;;;;54.63;27.07;;;;;;;0.04;69.55;102493.06;4972939;28;20646;-65
2022/03/23 04:45:08;;;;;;;66.57;33.20;;;;;;;0.14;69.70;102491.81;4973933;28;20258;-64
2022/03/23 04:47:34;;;;;;;58.53;29.30;;;;;;;0.20;69.32;102491.59;4973225;28;20266;-67
2022/03/23 04:50:00;;;;;;;65.60;31.07;;;;;;;0.30;68.85;102487.75;4973435;28;20397;-64
2022/03/23 04:52:26;;;;;;;65.23;29.57;;;;;;;0.34;68.54;102478.03;4973157;28;20302;-65
2022/03/23 04:54:56;;;;;;;58.50;30.67;;;;;;;0.44;68.79;102482.00;4955694;28;20262;-64
2022/03/23 04:57:26;;;;;;;77.03;30.90;;;;;;;0.55;68.70;102484.22;4972064;28;20270;-65
2022/03/23 04:59:52;;;;;;;61.93;28.07;;;;;;;0.62;68.12;102480.50;4972670;28;20277;-66
2022/03/23 05:02:18;;;;;;;76.60;31.17;;;;;;;0.72;68.13;102479.22;4972236;28;20270;-65
2022/03/23 05:04:44;;;;;;;70.93;30.53;;;;;;;0.79;68.06;102475.44;4971962;28;20043;-66
2022/03/23 05:07:10;;;;;;;69.27;28.37;;;;;;;0.78;67.23;102455.38;4972010;28;20370;-65
2022/03/23 05:09:35;;;;;;;64.77;28.47;;;;;;;0.98;66.85;102478.25;4972431;28;20779;-64
2022/03/23 05:12:01;;;;;;;62.80;32.43;;;;;;;1.08;67.02;102476.09;4976223;28;20057;-65
2022/03/23 05:14:27;;;;;;;53.60;28.40;;;;;;;1.16;66.96;102476.69;4977381;28;20030;-65
2022/03/23 05:16:52;;;;;;;66.40;27.33;;;;;;;1.30;66.43;102471.72;4976858;28;20031;-64
2022/03/23 05:19:18;;;;;;;63.87;26.97;;;;;;;1.35;65.91;102474.16;4976687;28;20409;-66
2022/03/23 05:21:43;;;;;;;67.23;28.67;;;;;;;1.42;65.49;102473.84;4976351;28;20038;-65
2022/03/23 05:24:09;;;;;;;52.93;27.83;;;;;;;1.51;65.29;102467.38;4976555;28;20532;-64
2022/03/23 05:26:35;;;;;;;53.17;26.50;;;;;;;1.51;64.88;102465.63;4975560;28;20499;-66
2022/03/23 05:29:04;;;;;;;61.10;29.67;;;;;;;1.60;65.54;102460.91;4959624;28;20101;-64
2022/03/23 05:31:29;;;;;;;58.93;26.73;;;;;;;1.66;64.85;102464.13;4976795;28;20753;-65
2022/03/23 05:33:55;;;;;;;55.93;26.27;;;;;;;1.63;64.23;102447.63;4977215;28;20038;-63
2022/03/23 05:36:20;;;;;;;56.23;26.33;;;;;;;1.75;63.57;102457.66;4976367;28;20039;-64
2022/03/23 05:38:46;;;;;;;56.30;27.20;;;;;;;1.81;63.98;102460.00;4959582;28;20069;-61
2022/03/23 05:41:11;;;;;;;71.77;27.43;;;;;;;1.71;63.80;102435.03;4975707;28;20034;-64
2022/03/23 05:43:37;;;;;;;54.63;25.80;;;;;;;1.88;62.98;102450.09;4958755;28;20034;-62
2022/03/23 05:46:02;;;;;;;60.57;24.70;;;;;;;1.90;62.50;102435.97;4975334;28;20433;-64
2022/03/23 05:48:28;;;;;;;54.77;24.20;;;;;;;1.96;62.27;102430.44;4976499;28;20053;-73
2022/03/23 05:50:54;;;;;;;56.37;24.67;;;;;;;2.19;62.11;102445.22;4980615;28;20102;-72
2022/03/23 05:53:19;;;;;;;53.60;24.90;;;;;;;2.30;61.48;102440.31;4978956;28;20043;-73
2022/03/23 05:55:45;;;;;;;50.77;24.17;;;;;;;2.31;61.06;102420.13;4961139;28;20285;-72
2022/03/23 05:58:11;;;;;;;58.37;23.20;;;;;;;2.43;61.06;102436.22;4958664;28;20038;-67
2022/03/23 06:00:36;;;;;;;60.87;25.20;;;;;;;2.43;60.50;102425.72;4976704;28;20093;-64
2022/03/23 06:03:02;;;;;;;62.90;25.10;;;;;;;2.53;60.29;102423.50;4975842;28;20042;-64
2022/03/23 06:05:27;;;;;;;51.80;23.17;;;;;;;2.57;59.79;102430.31;4942366;28;20034;-65
2022/03/23 06:07:53;;;;;;;50.03;23.17;;;;;;;2.62;59.78;102425.72;4975759;28;20043;-65
2022/03/23 06:10:18;;;;;;;63.97;24.67;;;;;;;2.64;59.42;102418.63;4975428;28;20134;-65
2022/03/23 06:12:44;;;;;;;56.37;23.33;;;;;;;2.70;59.01;102418.34;4975473;28;20073;-65
2022/03/23 06:15:11;;;;;;;65.70;23.43;;;;;;;2.74;58.84;102413.78;4958569;28;20038;-65
2022/03/23 06:17:38;;;;;;;64.57;24.37;;;;;;;2.87;58.34;102419.31;4976090;28;20054;-64
2022/03/23 06:20:05;;;;;;;56.83;24.50;;;;;;;2.90;58.19;102420.03;4976139;28;20274;-62
2022/03/23 06:22:30;;;;;;;56.20;24.30;;;;;;;2.92;57.70;102418.19;4975822;28;20287;-63
2022/03/23 06:24:57;;;;;;;57.93;22.30;;;;;;;2.91;57.57;102410.38;4976258;28;20286;-65
2022/03/23 06:27:27;;;;;;;48.80;21.07;;;;;;;2.96;56.41;102419.75;4976658;28;20050;-64
2022/03/23 06:29:57;;;;;;;47.73;22.10;;;;;;;2.93;56.90;102408.50;4976470;28;20306;-65
2022/03/23 06:32:23;;;;;;;42.83;20.13;;;;;;;2.85;56.52;102411.47;4977296;28;20694;-66
2022/03/23 06:34:48;;;;;;;43.33;17.87;;;;;;;2.76;56.47;102399.63;4975344;28;20039;-64
2022/03/23 06:37:14;;;;;;;49.63;19.60;;;;;;;2.76;56.53;102397.00;4975270;28;20030;-64
2022/03/23 06:39:39;;;;;;;47.73;20.73;;;;;;;2.80;56.69;102414.34;4974826;28;20073;-65
2022/03/23 06:42:05;;;;;;;53.40;20.43;;;;;;;2.80;56.75;102414.34;4975237;28;20482;-64
2022/03/23 06:44:30;;;;;;;57.10;21.00;;;;;;;2.82;56.72;102403.72;4975298;28;20073;-66
2022/03/23 06:46:56;;;;;;;58.83;21.83;;;;;;;2.89;56.28;102396.38;4975343;28;20549;-65
2022/03/23 06:49:21;;;;;;;42.27;19.50;;;;;;;2.93;56.60;102390.94;4974836;28;20035;-66
2022/03/23 06:51:47;;;;;;;48.37;20.00;;;;;;;2.96;55.48;102392.56;4974691;28;20035;-66
2022/03/23 06:54:12;;;;;;;34.37;19.60;;;;;;;3.05;55.42;102389.47;4975033;28;20034;-65
2022/03/23 06:56:38;;;;;;;41.97;19.87;;;;;;;3.10;54.78;102384.84;4974711;28;20039;-66
2022/03/23 06:59:06;;;;;;;35.30;18.53;;;;;;;3.16;54.44;102389.78;4975351;28;20042;-66
2022/03/23 07:01:32;;;;;;;52.53;20.48;;;;;;;3.24;54.63;102382.41;4975342;28;20625;-66
2022/03/23 07:03:57;;;;;;;36.23;19.67;;;;;;;3.31;54.08;102383.78;4974521;28;20034;-64
2022/03/23 07:06:23;;;;;;;38.17;19.40;;;;;;;3.35;54.15;102385.34;4975172;28;20046;-63
2022/03/23 07:11:32;;;;;;;34.80;18.30;;;;;;;3.40;53.27;102370.16;4975966;28;20125;-64
2022/03/23 07:13:58;;;;;;;38.60;18.50;;;;;;;3.41;52.74;102371.00;4959317;28;20296;-65
2022/03/23 07:16:24;;;;;;;33.83;19.13;;;;;;;3.46;53.07;102376.03;4975759;28;20031;-66
2022/03/23 07:18:50;;;;;;;43.83;19.80;;;;;;;3.55;52.77;102375.59;4958601;28;20046;-66
2022/03/23 07:21:16;;;;;;;44.97;18.17;;;;;;;3.65;53.18;102361.00;4975379;28;20634;-65
2022/03/23 07:23:41;;;;;;;38.23;18.40;;;;;;;3.83;52.25;102375.03;4957475;28;20488;-66
2022/03/23 07:26:08;;;;;;;41.37;20.30;;;;;;;3.85;52.22;102368.75;4974071;28;20577;-64
2022/03/23 07:28:34;;;;;;;35.87;18.83;;;;;;;3.98;51.92;102366.31;4974402;28;20054;-63
2022/03/23 07:31:01;;;;;;;38.47;19.27;;;;;;;4.01;51.33;102348.53;4974719;28;20312;-64
2022/03/23 07:33:27;;;;;;;44.83;19.83;;;;;;;4.22;50.31;102364.16;4973671;28;20274;-63
2022/03/23 07:35:52;;;;;;;39.00;18.73;;;;;;;4.36;50.24;102364.28;4956761;28;20049;-64
2022/03/23 07:38:18;;;;;;;50.77;18.50;;;;;;;4.47;50.28;102367.16;4974261;28;20274;-67
2022/03/23 07:40:44;;;;;;;40.00;17.70;;;;;;;4.67;49.94;102363.44;4974044;28;20047;-64
2022/03/23 07:43:10;;;;;;;43.87;20.40;;;;;;;4.82;49.60;102361.72;4956980;28;20381;-63
2022/03/23 07:45:35;;;;;;;42.57;21.17;;;;;;;4.86;49.56;102357.94;4974990;28;20517;-65
2022/03/23 07:48:01;;;;;;;44.03;17.93;;;;;;;4.79;49.11;102343.41;4974108;28;20402;-65
2022/03/23 07:50:27;;;;;;;33.30;19.90;;;;;;;4.86;48.73;102347.41;4974687;28;20414;-63
2022/03/23 07:52:57;;;;;;;53.67;20.00;;;;;;;4.89;48.25;102352.50;4957241;28;20045;-66
2022/03/23 07:55:30;;;;;;;41.43;19.50;;;;;;;4.95;47.77;102357.47;4975728;28;20358;-63
2022/03/23 07:57:56;;;;;;;33.87;18.93;;;;;;;4.92;47.99;102341.78;4976304;28;20066;-65
2022/03/23 08:00:21;;;;;;;39.00;17.90;;;;;;;4.99;47.44;102348.41;4957211;28;20305;-64
2022/03/23 08:02:47;;;;;;;30.23;17.80;;;;;;;4.93;47.61;102338.22;4957111;28;20506;-65
2022/03/23 08:05:18;;;;;;;33.77;16.30;;;;;;;4.77;48.11;102316.25;4957457;28;20038;-64
2022/03/23 08:07:45;;;;;;;33.27;17.80;;;;;;;4.71;47.99;102327.16;4973883;28;20258;-65
2022/03/23 08:10:11;;;;;;;32.10;17.27;;;;;;;4.68;48.54;102333.47;4976223;28;20058;-66
2022/03/23 08:12:36;;;;;;;34.73;17.47;;;;;;;4.69;48.46;102329.03;4973467;28;20332;-68
2022/03/23 08:15:02;;;;;;;49.50;19.33;;;;;;;4.70;48.65;102321.03;4973442;28;20270;-69
2022/03/23 08:17:29;;;;;;;42.00;18.20;;;;;;;4.73;47.94;102326.13;4957959;28;20037;-67
2022/03/23 08:22:41;;;;;;;46.93;18.00;;;;;;;4.77;47.92;102325.03;4976524;28;20474;-79
2022/03/23 08:25:09;;;;;;;31.98;16.40;;;;;;;4.80;47.24;102322.19;4976376;28;20274;-69
2022/03/23 08:27:35;;;;;;;40.45;18.30;;;;;;;4.84;47.89;102328.16;4973267;28;20050;-66
2022/03/23 08:30:00;;;;;;;34.23;16.80;;;;;;;4.85;47.66;102314.00;4975434;28;20039;-66
2022/03/23 08:32:26;;;;;;;38.77;16.73;;;;;;;4.84;47.76;102309.69;4975292;28;20094;-68
2022/03/23 08:34:52;;;;;;;35.47;17.30;;;;;;;4.90;47.52;102322.53;4974213;28;20154;-73
2022/03/23 08:37:18;;;;;;;36.40;17.37;;;;;;;4.82;47.69;102315.03;4955923;28;20533;-70
2022/03/23 08:39:43;;;;;;;38.80;18.17;;;;;;;4.91;47.75;102321.59;4973718;28;20026;-70
2022/03/23 08:42:09;;;;;;;37.77;18.47;;;;;;;4.94;47.75;102316.16;4972530;28;20031;-71
2022/03/23 08:44:34;;;;;;;36.13;17.20;;;;;;;4.96;47.86;102309.00;4972795;28;20046;-67
2022/03/23 08:47:00;;;;;;;32.90;17.33;;;;;;;5.05;48.01;102311.09;4972996;28;20069;-67
2022/03/23 08:49:26;;;;;;;35.83;18.23;;;;;;;5.12;47.69;102295.72;4973042;28;20034;-67
2022/03/23 08:51:51;;;;;;;38.97;18.93;;;;;;;5.14;46.83;102315.81;4971958;28;20277;-68
2022/03/23 08:54:17;;;;;;;41.87;19.57;;;;;;;4.89;47.62;102290.00;4972873;28;20042;-68
2022/03/23 08:56:42;;;;;;;39.60;18.93;;;;;;;5.07;47.88;102306.56;4972924;28;20502;-65
2022/03/23 08:59:08;;;;;;;38.37;17.33;;;;;;;5.15;48.28;102306.13;4972519;28;20109;-66
2022/03/23 09:01:33;;;;;;;32.67;17.60;;;;;;;5.20;47.83;102294.34;4973420;28;20042;-66
2022/03/23 09:04:03;;;;;;;53.63;18.43;;;;;;;5.15;47.92;102311.41;4978238;28;20047;-66
2022/03/23 09:06:29;;;;;;;29.63;16.33;;;;;;;5.00;47.82;102301.75;4987190;28;20053;-69
2022/03/23 09:08:55;;;;;;;38.90;19.40;;;;;;;5.00;47.44;102304.38;4977079;28;20361;-67
2022/03/23 09:11:22;;;;;;;34.30;17.50;;;;;;;4.97;47.78;102292.22;4975519;28;20050;-67
2022/03/23 09:13:48;;;;;;;35.03;18.87;;;;;;;5.11;48.44;102299.31;4975647;28;20031;-68
2022/03/23 09:16:15;;;;;;;38.63;18.87;;;;;;;5.17;47.74;102294.50;4975793;28;20751;-66
2022/03/23 09:18:41;;;;;;;35.83;18.63;;;;;;;5.20;48.07;102293.47;4973660;28;20270;-70
2022/03/23 09:21:07;;;;;;;38.43;19.20;;;;;;;5.17;48.11;102289.22;4973145;28;20270;-68
2022/03/23 09:23:32;;;;;;;29.47;17.50;;;;;;;5.09;48.36;102286.19;4972998;28;20650;-68
2022/03/23 09:26:01;;;;;;;33.03;17.40;;;;;;;5.09;48.92;102288.84;4973180;28;20065;-69
2022/03/23 09:28:26;;;;;;;34.58;17.23;;;;;;;5.28;48.68;102285.97;4973649;28;20050;-70
2022/03/23 09:30:52;;;;;;;34.50;18.57;;;;;;;5.36;48.48;102289.00;4956029;28;20466;-66
2022/03/23 09:33:48;;;;;;;34.60;18.70;;;;;;;5.39;47.94;102280.03;4973161;28;20516;-75
2022/03/23 09:39:24;;;;;;;33.17;18.17;;;;;;;5.67;47.60;102271.28;4980498;28;20365;-71
2022/03/23 09:41:51;;;;;;;42.33;19.37;;;;;;;5.79;47.22;102276.69;4942666;28;20437;-73
2022/03/23 09:44:17;;;;;;;35.03;17.50;;;;;;;5.86;47.04;102272.72;4973773;28;20043;-68
2022/03/23 09:46:43;;;;;;;38.13;18.20;;;;;;;5.96;46.97;102277.44;4973854;28;20266;-66
2022/03/23 09:49:09;;;;;;;36.27;20.00;;;;;;;5.98;47.00;102275.56;4972341;28;20043;-65
2022/03/23 09:51:37;;;;;;;34.57;18.30;;;;;;;6.00;46.59;102273.66;4972660;28;20277;-66
2022/03/23 09:54:03;;;;;;;32.60;18.50;;;;;;;5.92;46.36;102270.66;4955654;28;20105;-68
2022/03/23 09:57:02;;;;;;;30.60;18.43;;;;;;;5.89;46.66;102276.97;4976372;28;20262;-74
2022/03/23 09:59:45;;;;;;;28.40;16.63;;;;;;;5.76;46.56;102273.34;4942939;28;20284;-71
2022/03/23 10:02:32;;;;;;;28.17;17.50;;;;;;;5.78;47.05;102272.34;4977419;28;20267;-68
2022/03/23 10:05:35;;;;;;;39.07;19.23;;;;;;;5.88;46.36;102265.53;4977334;28;20513;-69
2022/03/23 10:08:26;;;;;;;30.07;17.40;;;;;;;6.00;46.93;102258.66;4979657;28;20309;-71
2022/03/23 10:11:29;;;;;;;37.80;17.87;;;;;;;6.14;47.08;102260.44;4990209;28;20298;-75
2022/03/23 10:14:51;;;;;;;33.13;16.33;;;;;;;6.27;46.55;102252.56;4971047;28;20333;-74
2022/03/23 10:17:38;;;;;;;36.03;17.83;;;;;;;6.43;45.17;102255.91;4979763;28;20342;-73
2022/03/23 10:20:04;;;;;;;34.40;18.57;;;;;;;6.54;45.15;102256.06;4978394;28;20262;-65
2022/03/23 10:22:30;;;;;;;35.73;21.60;;;;;;;6.57;45.17;102239.13;4975228;28;20281;-65
2022/03/23 10:25:09;;;;;;;31.47;18.97;;;;;;;6.61;44.95;102249.41;4942445;28;20066;-69
2022/03/23 10:27:36;;;;;;;30.57;17.70;;;;;;;6.55;44.50;102228.63;4957768;28;20109;-71
2022/03/23 10:30:02;;;;;;;36.57;19.27;;;;;;;6.47;45.37;102230.94;4976003;28;20409;-74
2022/03/23 10:33:01;;;;;;;35.57;18.00;;;;;;;6.60;45.25;102246.88;4982785;28;20695;-77
2022/03/23 10:35:37;;;;;;;32.77;19.20;;;;;;;6.48;44.81;102228.19;4959324;28;20369;-72
2022/03/23 10:38:11;;;;;;;37.67;20.43;;;;;;;6.47;44.63;102231.81;4975718;28;20274;-71
2022/03/23 10:40:37;;;;;;;34.43;17.57;;;;;;;6.51;44.94;102233.28;4975598;28;20761;-73
2022/03/23 10:43:03;;;;;;;38.33;18.73;;;;;;;6.55;44.65;102218.06;4975524;28;20278;-73
2022/03/23 10:45:31;;;;;;;37.00;19.17;;;;;;;6.70;44.25;102224.16;4958039;28;20267;-68
2022/03/23 10:48:11;;;;;;;31.23;18.08;;;;;;;6.64;43.83;102221.88;4976436;28;20038;-70
2022/03/23 10:50:37;;;;;;;32.30;17.83;;;;;;;6.59;44.75;102221.34;4975218;28;20124;-73
2022/03/23 10:53:06;;;;;;;36.27;18.47;;;;;;;6.62;44.52;102213.19;4974914;28;20042;-75
2022/03/23 10:55:36;;;;;;;31.45;18.42;;;;;;;6.61;44.16;102217.66;4957512;28;20357;-71
2022/03/23 10:58:02;;;;;;;35.00;17.57;;;;;;;6.72;44.42;102209.00;4974876;28;20071;-73
2022/03/23 11:00:38;;;;;;;36.97;18.63;;;;;;;6.68;44.00;102202.22;4974754;28;20781;-68
2022/03/23 11:03:06;;;;;;;32.53;19.20;;;;;;;6.76;43.35;102202.56;4959496;28;20041;-74
2022/03/23 11:05:46;;;;;;;37.13;18.43;;;;;;;6.82;44.15;102196.84;4957942;28;20043;-74
2022/03/23 11:08:23;;;;;;;39.77;19.10;;;;;;;6.84;44.26;102193.13;4957532;28;20445;-71
2022/03/23 11:16:51;;;;;;;38.00;19.90;;;;;;;7.11;43.20;102184.25;4962010;28;20031;-70
2022/03/23 11:19:26;;;;;;;28.50;17.40;;;;;;;7.02;43.87;102159.25;4963169;28;20569;-71
2022/03/23 11:22:04;;;;;;;29.93;17.00;;;;;;;7.18;43.40;102176.72;4974012;28;20290;-68
2022/03/23 11:24:37;;;;;;;35.20;19.17;;;;;;;7.18;42.94;102174.09;4974752;28;20166;-71
2022/03/23 11:27:07;;;;;;;29.93;18.23;;;;;;;7.11;42.54;102168.38;4957407;28;20179;-74
2022/03/23 11:29:33;;;;;;;26.83;17.60;;;;;;;7.20;42.97;102166.88;4974770;28;20141;-72
2022/03/23 11:32:07;;;;;;;35.87;19.17;;;;;;;7.18;42.86;102171.44;4977869;28;20066;-74
2022/03/23 11:34:34;;;;;;;32.87;17.97;;;;;;;7.22;43.05;102170.25;4975325;28;20539;-69
2022/03/23 11:37:29;;;;;;;36.33;18.77;;;;;;;7.15;42.50;102164.56;4968179;28;20109;-73
2022/03/23 11:39:56;;;;;;;30.87;18.07;;;;;;;7.26;42.94;102166.47;4972157;28;20097;-73
2022/03/23 11:42:22;;;;;;;32.93;19.17;;;;;;;7.34;42.96;102150.88;4974416;28;20026;-72